Time;durP1;ratioP1;P1;durP2;ratioP2;P2;SDS_P1;SDS_P2;PMS_P1;PMS_P2;Temp;Humidity;BMP_temperature;BMP_pressure;BME280_temperature;BME280_humidity;BME280_pressure;Samples;Min_cycle;Max_cycle;Signal;HPM_P1;HPM_P2
2023/05/22 00:01:05;;;;;;;5.22;2.85;;;24.20;55.50;;;;;;6103676;28;80904;-59
2023/05/22 00:04:06;;;;;;;3.67;2.83;;;24.20;56.10;;;;;;6102546;28;80812;-59
2023/05/22 00:07:06;;;;;;;5.88;3.03;;;24.20;55.50;;;;;;6096255;28;80252;-62
2023/05/22 00:10:07;;;;;;;4.35;3.05;;;24.20;55.50;;;;;;6079330;28;80587;-60
2023/05/22 00:13:07;;;;;;;4.78;3.25;;;24.20;55.60;;;;;;6080223;28;80659;-60
2023/05/22 00:16:08;;;;;;;6.05;2.90;;;24.10;55.40;;;;;;6079684;28;80397;-61
2023/05/22 00:19:15;;;;;;;4.68;2.90;;;24.20;55.40;;;;;;6104582;28;80329;-60
2023/05/22 00:22:15;;;;;;;3.45;2.90;;;24.20;55.40;;;;;;6095006;28;81881;-60
2023/05/22 00:25:16;;;;;;;4.88;3.03;;;24.10;55.40;;;;;;6102454;28;80228;-56
2023/05/22 00:28:17;;;;;;;5.28;2.60;;;24.10;55.40;;;;;;6089248;28;86568;-57
2023/05/22 00:31:17;;;;;;;7.03;3.30;;;24.10;55.40;;;;;;6096997;28;81098;-58
2023/05/22 00:34:18;;;;;;;5.22;3.20;;;24.10;55.30;;;;;;6095502;28;83386;-57
2023/05/22 00:37:21;;;;;;;4.45;2.75;;;24.10;55.30;;;;;;6091351;28;81328;-58
2023/05/22 00:40:22;;;;;;;3.75;2.90;;;24.10;55.40;;;;;;6084195;28;80897;-58
2023/05/22 00:43:23;;;;;;;3.55;2.88;;;24.10;55.30;;;;;;6106452;28;81716;-57
2023/05/22 00:46:23;;;;;;;5.97;3.00;;;24.10;55.30;;;;;;6098474;28;83037;-58
2023/05/22 00:49:24;;;;;;;5.60;3.30;;;24.10;55.20;;;;;;6097326;28;82119;-58
2023/05/22 00:52:24;;;;;;;5.63;3.40;;;24.10;55.20;;;;;;6102185;28;80437;-59
2023/05/22 00:55:25;;;;;;;5.55;3.20;;;24.10;55.30;;;;;;6105250;28;83398;-59
2023/05/22 00:58:25;;;;;;;6.03;2.60;;;24.10;55.30;;;;;;6091914;28;80540;-61
2023/05/22 01:01:32;;;;;;;6.90;3.38;;;24.10;55.30;;;;;;6083429;28;80557;-60
2023/05/22 01:04:34;;;;;;;4.38;3.00;;;24.10;55.30;;;;;;6103302;28;81390;-60
2023/05/22 01:07:36;;;;;;;4.05;3.00;;;24.10;55.30;;;;;;6090551;28;81782;-60
2023/05/22 01:10:37;;;;;;;3.78;2.63;;;24.10;55.30;;;;;;6089038;28;80610;-63
2023/05/22 01:13:37;;;;;;;4.15;3.10;;;24.10;55.30;;;;;;6084132;28;80437;-61
2023/05/22 01:16:38;;;;;;;4.38;3.00;;;24.10;55.30;;;;;;6083299;28;80828;-59
2023/05/22 01:19:39;;;;;;;5.18;3.20;;;24.10;55.30;;;;;;6087660;28;80536;-61
2023/05/22 01:22:42;;;;;;;4.65;2.80;;;24.10;55.20;;;;;;6095168;28;80898;-60
2023/05/22 01:25:42;;;;;;;4.10;3.00;;;24.10;55.20;;;;;;6096744;28;80898;-61
2023/05/22 01:28:43;;;;;;;3.53;2.75;;;24.10;55.20;;;;;;6103888;28;80616;-61
2023/05/22 01:31:43;;;;;;;2.85;2.58;;;24.10;55.20;;;;;;6104460;28;83100;-61
2023/05/22 01:34:44;;;;;;;3.88;2.78;;;24.10;55.30;;;;;;6103742;28;82298;-60
2023/05/22 01:37:45;;;;;;;4.20;3.08;;;24.10;55.10;;;;;;6092546;28;80795;-58
2023/05/22 01:40:45;;;;;;;4.53;3.13;;;24.10;55.00;;;;;;6102052;28;82595;-58
2023/05/22 01:43:46;;;;;;;4.97;3.10;;;24.10;54.80;;;;;;6102685;28;81159;-59
2023/05/22 01:46:46;;;;;;;4.18;3.03;;;24.10;54.90;;;;;;6101812;28;80387;-60
2023/05/22 01:49:47;;;;;;;4.50;2.92;;;24.10;55.00;;;;;;6099957;28;83598;-59
2023/05/22 01:52:48;;;;;;;4.22;2.90;;;24.10;55.20;;;;;;6102907;28;80473;-58
2023/05/22 01:55:49;;;;;;;4.00;2.90;;;24.10;55.00;;;;;;6107075;28;83190;-59
2023/05/22 01:58:51;;;;;;;5.25;2.58;;;24.10;54.80;;;;;;6114214;28;80477;-61
2023/05/22 02:01:51;;;;;;;6.18;3.33;;;24.10;54.80;;;;;;6104500;28;80032;-62
2023/05/22 02:04:52;;;;;;;3.63;2.65;;;24.10;54.80;;;;;;6109304;28;82498;-62
2023/05/22 02:07:52;;;;;;;3.40;2.90;;;24.10;54.70;;;;;;6104480;28;82484;-62
2023/05/22 02:10:53;;;;;;;6.32;3.08;;;24.00;54.60;;;;;;6105072;28;81567;-62
2023/05/22 02:13:55;;;;;;;3.63;2.83;;;24.10;54.60;;;;;;6104211;28;82218;-60
2023/05/22 02:16:56;;;;;;;3.80;2.95;;;24.00;54.50;;;;;;6103706;28;83627;-60
2023/05/22 02:19:57;;;;;;;3.42;2.90;;;24.00;54.40;;;;;;6098765;28;84949;-60
2023/05/22 02:22:58;;;;;;;3.67;2.80;;;24.00;55.10;;;;;;6134977;28;83079;-60
2023/05/22 02:25:58;;;;;;;5.32;2.85;;;24.10;54.50;;;;;;6106623;28;80565;-60
2023/05/22 02:28:59;;;;;;;3.58;2.67;;;24.00;54.40;;;;;;6122536;28;83181;-59
2023/05/22 02:32:00;;;;;;;5.65;3.15;;;24.10;54.50;;;;;;6127718;28;83221;-60
2023/05/22 02:35:01;;;;;;;3.85;2.90;;;24.10;54.40;;;;;;6140332;28;81580;-59
2023/05/22 02:38:02;;;;;;;4.28;2.92;;;24.00;54.30;;;;;;6149109;28;82964;-59
2023/05/22 02:41:02;;;;;;;4.95;2.65;;;24.00;54.30;;;;;;6131965;28;83257;-57
2023/05/22 02:44:03;;;;;;;3.70;2.92;;;24.00;54.20;;;;;;6121222;28;83567;-58
2023/05/22 02:47:03;;;;;;;4.55;3.20;;;24.10;54.30;;;;;;6121836;28;83793;-58
2023/05/22 02:50:04;;;;;;;3.40;2.47;;;24.10;54.20;;;;;;6123031;28;83844;-58
2023/05/22 02:53:07;;;;;;;3.63;2.75;;;24.00;54.10;;;;;;6126044;28;83170;-57
2023/05/22 02:56:07;;;;;;;3.97;2.70;;;24.00;54.20;;;;;;6115654;28;80167;-60
2023/05/22 02:59:08;;;;;;;5.25;2.53;;;24.10;54.10;;;;;;6128627;28;80749;-59
2023/05/22 03:02:08;;;;;;;7.10;3.03;;;24.00;54.00;;;;;;6124971;28;80960;-59
2023/05/22 03:05:09;;;;;;;5.97;2.90;;;24.10;54.30;;;;;;6177625;28;83134;-60
2023/05/22 03:08:10;;;;;;;3.08;2.65;;;24.00;54.00;;;;;;6136269;28;81423;-60
2023/05/22 03:11:10;;;;;;;4.78;2.65;;;24.00;54.00;;;;;;6140725;28;81685;-60
2023/05/22 03:14:11;;;;;;;3.67;2.78;;;24.00;54.10;;;;;;6140933;28;80501;-60
2023/05/22 03:17:11;;;;;;;5.45;2.90;;;24.00;54.20;;;;;;6127330;28;80745;-60
2023/05/22 03:20:15;;;;;;;3.10;2.50;;;24.00;54.20;;;;;;6126897;28;86089;-60
2023/05/22 03:23:16;;;;;;;3.72;2.47;;;24.00;54.10;;;;;;6126798;28;83243;-61
2023/05/22 03:26:18;;;;;;;8.82;3.05;;;24.00;54.00;;;;;;6125352;28;83285;-61
2023/05/22 03:29:18;;;;;;;3.90;2.92;;;24.10;54.10;;;;;;6121821;28;83396;-60
2023/05/22 03:32:19;;;;;;;5.30;3.33;;;24.00;54.10;;;;;;6121824;28;81448;-61
2023/05/22 03:35:20;;;;;;;4.15;3.00;;;24.00;54.20;;;;;;6116450;28;83563;-61
2023/05/22 03:38:20;;;;;;;4.70;2.88;;;24.00;54.00;;;;;;6131998;28;83617;-64
2023/05/22 03:41:21;;;;;;;4.47;2.67;;;24.00;54.30;;;;;;6129211;28;81730;-60
2023/05/22 03:44:22;;;;;;;3.78;3.17;;;24.00;54.30;;;;;;6150884;28;82821;-61
2023/05/22 03:47:23;;;;;;;7.95;3.95;;;24.00;54.90;;;;;;6123306;28;82825;-61
2023/05/22 03:50:23;;;;;;;4.10;2.75;;;24.00;55.20;;;;;;6136745;28;82193;-61
2023/05/22 03:53:24;;;;;;;5.65;2.92;;;24.00;55.00;;;;;;6117306;28;81074;-59
2023/05/22 03:56:25;;;;;;;4.72;3.25;;;24.00;54.70;;;;;;6118900;28;80288;-58
2023/05/22 03:59:25;;;;;;;8.82;3.35;;;24.00;54.80;;;;;;6134801;28;83855;-59
2023/05/22 04:02:28;;;;;;;6.30;3.72;;;24.00;54.70;;;;;;6107223;28;81138;-57
2023/05/22 04:05:31;;;;;;;5.10;2.90;;;24.00;54.90;;;;;;6136041;28;81282;-59
2023/05/22 04:08:31;;;;;;;5.70;3.40;;;24.00;54.60;;;;;;6124000;28;82943;-54
2023/05/22 04:11:34;;;;;;;4.72;3.10;;;24.00;54.60;;;;;;6112093;28;81287;-53
2023/05/22 04:14:35;;;;;;;7.63;3.88;;;24.00;54.60;;;;;;6142289;28;83588;-53
2023/05/22 04:17:35;;;;;;;4.40;2.97;;;24.10;54.70;;;;;;6109908;28;80526;-59
2023/05/22 04:20:38;;;;;;;3.83;2.80;;;24.10;54.50;;;;;;6119885;28;83621;-58
2023/05/22 04:23:42;;;;;;;6.28;3.60;;;24.00;54.40;;;;;;6114200;28;81130;-59
2023/05/22 04:26:43;;;;;;;11.88;3.35;;;24.00;54.40;;;;;;6118238;28;82670;-54
2023/05/22 04:29:45;;;;;;;8.27;3.45;;;24.00;54.50;;;;;;6124656;28;80362;-60
2023/05/22 04:32:46;;;;;;;5.88;2.92;;;24.00;54.30;;;;;;6126917;28;81268;-58
2023/05/22 04:35:47;;;;;;;6.38;3.25;;;24.00;54.10;;;;;;6127471;28;81145;-58
2023/05/22 04:38:47;;;;;;;3.90;3.10;;;24.00;54.00;;;;;;6126585;28;82358;-55
2023/05/22 04:41:49;;;;;;;9.40;3.08;;;24.00;54.10;;;;;;6127482;28;80198;-60
2023/05/22 04:44:51;;;;;;;16.90;4.20;;;24.00;54.00;;;;;;6125467;28;80375;-62
2023/05/22 04:47:53;;;;;;;7.80;2.88;;;24.00;53.90;;;;;;6153361;28;80691;-63
2023/05/22 04:50:56;;;;;;;10.55;3.22;;;24.00;53.70;;;;;;6121423;28;81569;-62
2023/05/22 04:53:57;;;;;;;8.32;3.00;;;24.00;53.60;;;;;;6120324;28;80455;-63
2023/05/22 04:56:57;;;;;;;6.63;3.10;;;24.00;53.50;;;;;;6120582;28;83103;-62
2023/05/22 05:00:00;;;;;;;5.90;3.03;;;24.00;53.40;;;;;;6123331;28;80589;-62
2023/05/22 05:03:00;;;;;;;6.22;3.50;;;24.00;53.30;;;;;;6127767;28;82920;-58
2023/05/22 05:06:01;;;;;;;7.22;3.40;;;23.90;51.90;;;;;;6119835;28;84608;-53
2023/05/22 05:09:01;;;;;;;8.75;3.65;;;23.80;51.20;;;;;;6120675;28;83430;-50
2023/05/22 05:12:03;;;;;;;13.05;5.72;;;23.70;50.40;;;;;;6127006;28;83436;-51
2023/05/22 05:15:04;;;;;;;12.18;5.85;;;23.70;50.20;;;;;;6138299;28;83120;-54
2023/05/22 05:18:04;;;;;;;12.60;6.35;;;23.50;50.00;;;;;;6130643;28;82408;-53
2023/05/22 05:21:05;;;;;;;13.35;5.97;;;23.50;49.90;;;;;;6109007;28;80239;-54
2023/05/22 05:24:05;;;;;;;14.35;7.38;;;23.50;49.80;;;;;;6120935;28;84061;-55
2023/05/22 05:27:06;;;;;;;16.35;8.55;;;23.40;49.60;;;;;;6121168;28;83723;-53
2023/05/22 05:30:06;;;;;;;14.25;7.07;;;23.30;49.70;;;;;;6125414;28;83150;-56
2023/05/22 05:33:26;;;;;;;14.25;7.47;;;23.30;49.70;;;;;;6110128;28;81593;-55
2023/05/22 05:36:40;;;;;;;14.10;7.70;;;23.30;49.80;;;;;;6122848;28;83575;-52
2023/05/22 05:39:41;;;;;;;18.08;8.60;;;23.20;49.70;;;;;;6110856;28;83372;-55
2023/05/22 05:42:43;;;;;;;20.38;9.27;;;23.20;49.70;;;;;;6129236;28;81895;-55
2023/05/22 05:45:44;;;;;;;15.10;8.32;;;23.20;49.90;;;;;;6123673;28;82709;-54
2023/05/22 05:48:44;;;;;;;17.83;7.93;;;23.20;50.00;;;;;;6123052;28;82725;-54
2023/05/22 05:51:45;;;;;;;15.75;6.68;;;23.10;50.20;;;;;;6124220;28;81804;-55
2023/05/22 05:54:46;;;;;;;16.02;6.72;;;23.10;50.10;;;;;;6113058;28;83119;-58
2023/05/22 05:57:50;;;;;;;13.73;6.43;;;23.10;50.30;;;;;;6142429;28;83311;-65
2023/05/22 06:00:58;;;;;;;9.30;5.82;;;23.20;50.40;;;;;;6120310;28;81706;-66
2023/05/22 06:04:02;;;;;;;12.10;6.03;;;23.20;50.40;;;;;;6131322;28;84293;-66
2023/05/22 06:07:05;;;;;;;11.05;4.95;;;23.20;50.70;;;;;;6118344;28;82792;-66
2023/05/22 06:10:17;;;;;;;10.65;5.05;;;23.30;50.40;;;;;;6139987;28;83338;-66
2023/05/22 06:13:44;;;;;;;;;;;23.30;50.30;;;;;;6114108;28;81500;-65
2023/05/22 06:16:45;;;;;;;9.10;4.45;;;23.30;50.40;;;;;;6128509;28;83747;-67
2023/05/22 06:19:46;;;;;;;8.77;4.28;;;23.30;50.20;;;;;;6139109;28;80363;-67
2023/05/22 06:22:47;;;;;;;9.90;5.25;;;23.30;50.30;;;;;;6121031;28;83346;-66
2023/05/22 06:25:48;;;;;;;10.23;4.63;;;23.30;50.50;;;;;;6121918;28;83031;-65
2023/05/22 06:28:50;;;;;;;7.47;4.68;;;23.30;50.50;;;;;;6122285;28;83847;-66
2023/05/22 06:31:52;;;;;;;7.38;4.40;;;23.30;50.60;;;;;;6128441;28;83160;-65
2023/05/22 06:34:53;;;;;;;6.88;3.92;;;23.30;50.40;;;;;;6150227;28;83407;-58
2023/05/22 06:37:56;;;;;;;8.50;4.72;;;23.30;50.60;;;;;;6132980;28;83623;-58
2023/05/22 06:40:58;;;;;;;8.38;4.65;;;23.30;50.40;;;;;;6132766;28;82166;-58
2023/05/22 06:44:01;;;;;;;7.45;4.55;;;23.30;50.30;;;;;;6119110;28;82715;-56
2023/05/22 06:47:03;;;;;;;8.10;4.10;;;23.40;50.50;;;;;;6147689;28;82487;-57
2023/05/22 06:50:05;;;;;;;7.35;4.15;;;23.40;50.50;;;;;;6119107;28;82725;-57
2023/05/22 06:53:05;;;;;;;9.23;4.78;;;23.50;50.50;;;;;;6143734;28;81510;-59
2023/05/22 06:56:06;;;;;;;5.60;4.00;;;23.50;50.50;;;;;;6127737;28;83501;-57
2023/05/22 06:59:20;;;;;;;7.55;4.03;;;23.50;50.60;;;;;;6115073;28;87875;-59
2023/05/22 07:02:43;;;;;;;7.32;4.07;;;23.60;50.70;;;;;;6115695;28;81279;-58
2023/05/22 07:06:11;;;;;;;7.05;4.18;;;23.60;50.60;;;;;;6111923;28;81501;-58
2023/05/22 07:09:12;;;;;;;6.18;3.90;;;23.60;50.90;;;;;;6119005;28;83141;-59
2023/05/22 07:12:13;;;;;;;6.93;4.82;;;23.70;50.70;;;;;;6142836;28;83707;-58
2023/05/22 07:15:14;;;;;;;9.88;4.03;;;23.70;50.80;;;;;;6135058;28;83367;-54
2023/05/22 07:18:20;;;;;;;9.15;4.43;;;23.70;51.10;;;;;;6114230;28;83192;-58
2023/05/22 07:21:22;;;;;;;8.73;4.22;;;23.70;51.20;;;;;;6123625;28;81365;-58
2023/05/22 07:24:24;;;;;;;9.23;3.85;;;23.70;50.40;;;;;;6123895;28;83016;-58
2023/05/22 07:27:26;;;;;;;12.50;4.47;;;23.70;49.60;;;;;;6117923;28;82997;-59
2023/05/22 07:30:27;;;;;;;8.95;4.43;;;23.70;49.40;;;;;;6125035;28;83142;-57
2023/05/22 07:33:28;;;;;;;6.63;3.80;;;23.70;49.10;;;;;;6117858;28;82071;-58
2023/05/22 07:36:33;;;;;;;7.82;3.80;;;23.60;48.80;;;;;;6129762;28;83071;-59
2023/05/22 07:39:34;;;;;;;7.80;3.40;;;23.60;48.50;;;;;;6140936;28;83256;-57
2023/05/22 07:42:35;;;;;;;9.63;4.60;;;23.60;48.30;;;;;;6137643;28;82364;-60
2023/05/22 07:45:38;;;;;;;11.50;4.00;;;23.60;48.30;;;;;;6122882;28;83228;-58
2023/05/22 07:48:42;;;;;;;9.55;3.83;;;23.70;49.10;;;;;;6120173;28;80850;-58
2023/05/22 07:51:43;;;;;;;7.60;3.63;;;23.60;48.80;;;;;;6136262;28;83369;-58
2023/05/22 07:54:45;;;;;;;12.10;3.97;;;23.60;48.90;;;;;;6126335;28;80526;-58
2023/05/22 07:57:47;;;;;;;7.93;4.10;;;23.70;48.70;;;;;;6126817;28;83272;-59
2023/05/22 08:00:55;;;;;;;12.10;4.00;;;23.70;48.40;;;;;;6134641;28;80745;-58
2023/05/22 08:03:56;;;;;;;5.95;3.63;;;23.70;48.30;;;;;;6118729;28;83095;-58
2023/05/22 08:06:56;;;;;;;7.63;4.03;;;23.70;48.40;;;;;;6111695;28;80950;-59
2023/05/22 08:09:57;;;;;;;8.10;4.38;;;23.70;48.90;;;;;;6107170;28;80244;-58
2023/05/22 08:13:01;;;;;;;10.30;4.15;;;23.80;48.20;;;;;;6126751;28;80977;-60
2023/05/22 08:16:01;;;;;;;6.80;3.92;;;23.70;47.70;;;;;;6126645;28;80470;-58
2023/05/22 08:19:02;;;;;;;6.85;4.07;;;23.70;47.40;;;;;;6127656;28;80191;-58
2023/05/22 08:22:02;;;;;;;7.22;4.05;;;23.60;47.30;;;;;;6127011;28;81007;-59
2023/05/22 08:25:03;;;;;;;10.77;4.60;;;23.60;47.40;;;;;;6126457;28;80678;-59
2023/05/22 08:28:03;;;;;;;7.68;3.65;;;23.70;47.10;;;;;;6126944;28;81591;-58
2023/05/22 08:31:04;;;;;;;13.35;3.45;;;23.60;46.70;;;;;;6126549;28;80032;-59
2023/05/22 08:34:05;;;;;;;11.60;3.75;;;23.60;46.30;;;;;;6124215;28;81019;-59
2023/05/22 08:37:08;;;;;;;6.43;3.28;;;23.50;46.20;;;;;;6106238;28;81041;-58
2023/05/22 08:40:09;;;;;;;5.68;3.50;;;23.50;45.90;;;;;;6137742;28;80633;-58
2023/05/22 08:43:09;;;;;;;6.80;3.42;;;23.50;45.70;;;;;;6127100;28;80504;-58
2023/05/22 08:46:10;;;;;;;10.98;3.88;;;23.50;45.50;;;;;;6125626;28;81679;-56
2023/05/22 08:49:10;;;;;;;8.85;3.60;;;23.60;45.60;;;;;;6122672;28;80398;-58
2023/05/22 08:52:11;;;;;;;6.43;3.00;;;23.50;45.50;;;;;;6126783;28;83693;-58
2023/05/22 08:55:11;;;;;;;4.68;2.85;;;23.50;45.20;;;;;;6129038;28;80791;-58
2023/05/22 08:58:12;;;;;;;4.18;3.10;;;23.50;44.90;;;;;;6121327;28;80129;-58
2023/05/22 09:01:12;;;;;;;17.00;3.72;;;23.50;45.30;;;;;;6117644;28;81635;-58
2023/05/22 09:04:13;;;;;;;9.73;3.88;;;23.40;44.80;;;;;;6130102;28;80544;-59
2023/05/22 09:07:13;;;;;;;7.35;3.20;;;23.40;45.00;;;;;;6122156;28;80324;-58
2023/05/22 09:10:14;;;;;;;8.85;3.20;;;23.50;45.20;;;;;;6130897;28;80772;-58
2023/05/22 09:13:18;;;;;;;10.85;4.10;;;23.50;45.00;;;;;;6128064;28;82985;-58
2023/05/22 09:16:18;;;;;;;7.43;3.35;;;23.50;45.00;;;;;;6130189;28;81303;-60
2023/05/22 09:19:19;;;;;;;6.00;3.38;;;23.50;44.70;;;;;;6130139;28;80361;-59
2023/05/22 09:22:19;;;;;;;10.65;3.38;;;23.50;44.60;;;;;;6130920;28;80854;-59
2023/05/22 09:25:20;;;;;;;4.70;3.25;;;23.50;44.70;;;;;;6129561;28;80283;-58
2023/05/22 09:28:20;;;;;;;5.75;3.30;;;23.60;45.00;;;;;;6129194;28;80553;-58
2023/05/22 09:31:21;;;;;;;6.72;3.20;;;23.50;44.50;;;;;;6129344;28;82146;-58
2023/05/22 09:34:22;;;;;;;8.95;2.95;;;23.50;44.50;;;;;;6129442;28;80558;-59
2023/05/22 09:37:22;;;;;;;8.55;3.10;;;23.50;44.50;;;;;;6130455;28;81513;-64
2023/05/22 09:40:23;;;;;;;7.88;3.50;;;23.50;44.70;;;;;;6129975;28;80529;-62
2023/05/22 09:43:26;;;;;;;6.18;3.10;;;23.50;44.70;;;;;;6129900;28;81006;-64
2023/05/22 09:46:27;;;;;;;8.98;3.65;;;23.50;45.00;;;;;;6128606;28;81051;-62
2023/05/22 09:49:27;;;;;;;10.60;3.88;;;23.50;44.90;;;;;;6128691;28;80918;-64
2023/05/22 09:52:28;;;;;;;8.38;3.53;;;23.50;45.10;;;;;;6129002;28;81034;-64
2023/05/22 09:55:28;;;;;;;7.45;3.55;;;23.60;45.00;;;;;;6129433;28;81070;-70
2023/05/22 09:58:29;;;;;;;5.40;3.47;;;23.70;44.90;;;;;;6113053;28;81167;-70
2023/05/22 10:01:30;;;;;;;8.07;3.40;;;23.70;45.00;;;;;;6118946;28;82054;-72
2023/05/22 10:04:31;;;;;;;9.30;3.67;;;23.60;45.00;;;;;;6130367;28;82833;-72
2023/05/22 10:07:31;;;;;;;7.28;3.88;;;23.70;45.00;;;;;;6119339;28;80697;-70
2023/05/22 10:10:32;;;;;;;4.65;2.88;;;23.70;45.00;;;;;;6126741;28;83488;-71
2023/05/22 10:13:33;;;;;;;5.50;3.30;;;23.70;45.00;;;;;;6142073;28;81691;-62
2023/05/22 10:16:36;;;;;;;4.07;2.60;;;23.70;45.10;;;;;;6121868;28;82330;-64
2023/05/22 10:19:37;;;;;;;7.00;3.58;;;23.70;44.80;;;;;;6118732;28;81987;-63
2023/05/22 10:22:37;;;;;;;7.45;3.17;;;23.70;43.80;;;;;;6114038;28;84906;-62
2023/05/22 10:25:38;;;;;;;14.45;2.90;;;23.60;42.90;;;;;;6112273;28;81625;-64
2023/05/22 10:28:38;;;;;;;6.88;3.25;;;23.60;42.50;;;;;;6121601;28;81780;-65
2023/05/22 10:31:41;;;;;;;4.70;2.90;;;23.70;42.40;;;;;;6123234;28;80715;-65
2023/05/22 10:34:54;;;;;;;5.03;2.87;;;23.70;42.80;;;;;;6114060;28;82039;-58
2023/05/22 10:37:55;;;;;;;8.63;3.30;;;23.70;42.80;;;;;;6121165;28;80683;-58
2023/05/22 10:40:55;;;;;;;7.80;3.03;;;23.60;42.00;;;;;;6125612;28;80519;-58
2023/05/22 10:43:56;;;;;;;4.93;2.35;;;23.70;42.00;;;;;;6118803;28;81433;-57
2023/05/22 10:46:57;;;;;;;4.95;2.92;;;23.60;41.60;;;;;;6115448;28;81925;-59
2023/05/22 10:49:57;;;;;;;5.97;2.42;;;23.60;41.30;;;;;;6119448;28;80380;-60
2023/05/22 10:52:58;;;;;;;6.47;2.85;;;23.60;41.40;;;;;;6118912;28;80698;-65
2023/05/22 10:56:01;;;;;;;5.13;2.45;;;23.60;40.60;;;;;;6125674;28;80403;-63
2023/05/22 10:59:03;;;;;;;10.10;3.47;;;23.50;40.50;;;;;;6117410;28;83447;-64
2023/05/22 11:02:04;;;;;;;4.40;3.05;;;23.60;40.80;;;;;;6122055;28;81698;-64
2023/05/22 11:05:05;;;;;;;6.30;2.97;;;23.60;40.90;;;;;;6136040;28;83413;-64
2023/05/22 11:08:05;;;;;;;6.05;2.92;;;23.70;41.20;;;;;;6106970;28;80802;-69
2023/05/22 11:11:06;;;;;;;6.53;3.10;;;23.60;41.20;;;;;;6120234;28;81962;-67
2023/05/22 11:14:06;;;;;;;4.03;2.70;;;23.60;40.90;;;;;;6128133;28;80872;-72
2023/05/22 11:17:07;;;;;;;7.03;3.80;;;23.60;40.80;;;;;;6122631;28;80774;-73
2023/05/22 11:20:09;;;;;;;8.88;3.13;;;23.70;41.00;;;;;;6128093;28;80982;-72
2023/05/22 11:23:10;;;;;;;6.53;4.07;;;23.70;40.70;;;;;;6142246;28;82559;-68
2023/05/22 11:26:10;;;;;;;7.00;3.20;;;23.70;40.50;;;;;;6132121;28;80249;-69
2023/05/22 11:29:11;;;;;;;4.95;2.75;;;23.70;40.00;;;;;;6127755;28;80845;-62
2023/05/22 11:32:15;;;;;;;5.20;3.08;;;23.60;39.90;;;;;;6122356;28;81104;-62
2023/05/22 11:35:16;;;;;;;4.53;2.90;;;23.70;39.80;;;;;;6124841;28;84924;-62
2023/05/22 11:38:16;;;;;;;7.32;2.85;;;23.60;39.40;;;;;;6124935;28;81124;-61
2023/05/22 11:41:17;;;;;;;5.00;3.40;;;23.70;39.50;;;;;;6117900;28;81337;-63
2023/05/22 11:44:17;;;;;;;7.47;3.13;;;23.70;39.80;;;;;;6123086;28;80888;-63
2023/05/22 11:47:18;;;;;;;6.68;2.60;;;23.80;39.60;;;;;;6119757;28;81475;-59
2023/05/22 11:50:18;;;;;;;7.82;3.45;;;23.80;39.70;;;;;;6124148;28;81369;-58
2023/05/22 11:53:19;;;;;;;9.13;3.08;;;23.70;40.00;;;;;;6126632;28;80494;-58
2023/05/22 11:56:21;;;;;;;4.47;2.85;;;23.80;40.00;;;;;;6124580;28;80152;-58
2023/05/22 11:59:21;;;;;;;5.95;3.00;;;23.70;40.00;;;;;;6114813;28;81267;-58
2023/05/22 12:02:22;;;;;;;6.88;2.83;;;23.70;40.20;;;;;;6125633;28;80922;-59
2023/05/22 12:05:23;;;;;;;4.38;2.65;;;23.70;40.20;;;;;;6119894;28;80969;-58
2023/05/22 12:08:23;;;;;;;5.25;3.35;;;23.70;40.00;;;;;;6105853;28;80569;-59
2023/05/22 12:11:24;;;;;;;5.53;3.58;;;23.80;40.10;;;;;;6120739;28;81967;-57
2023/05/22 12:14:24;;;;;;;7.57;3.15;;;23.80;40.30;;;;;;6121519;28;81302;-58
2023/05/22 12:17:25;;;;;;;12.43;3.15;;;23.80;40.30;;;;;;6122000;28;80426;-58
2023/05/22 12:20:25;;;;;;;6.82;3.03;;;23.80;40.20;;;;;;6120416;28;80640;-58
2023/05/22 12:23:26;;;;;;;6.10;3.90;;;23.80;40.40;;;;;;6120119;28;80461;-58
2023/05/22 12:26:26;;;;;;;7.35;3.67;;;23.80;40.60;;;;;;6119427;28;80613;-58
2023/05/22 12:29:27;;;;;;;4.47;2.60;;;23.80;40.50;;;;;;6125299;28;81107;-56
2023/05/22 12:32:27;;;;;;;6.85;3.20;;;23.80;40.70;;;;;;6124112;28;80531;-59
2023/05/22 12:35:28;;;;;;;5.82;2.97;;;23.80;41.00;;;;;;6136912;28;80284;-53
2023/05/22 12:38:28;;;;;;;11.02;3.58;;;23.80;41.00;;;;;;6135041;28;80625;-58
2023/05/22 12:41:29;;;;;;;10.30;3.30;;;23.80;41.60;;;;;;6129493;28;82600;-52
2023/05/22 12:44:29;;;;;;;11.35;3.22;;;23.80;41.30;;;;;;6127429;28;83869;-56
2023/05/22 12:47:30;;;;;;;8.52;3.50;;;23.80;41.00;;;;;;6125034;28;80702;-55
2023/05/22 12:50:31;;;;;;;8.93;2.55;;;23.80;41.10;;;;;;6123660;28;81839;-55
2023/05/22 12:53:31;;;;;;;6.65;3.20;;;23.90;41.40;;;;;;6123362;28;80413;-56
2023/05/22 12:56:32;;;;;;;6.97;3.00;;;23.80;41.30;;;;;;6127298;28;83313;-56
2023/05/22 12:59:32;;;;;;;15.82;4.60;;;23.80;41.20;;;;;;6124761;28;81194;-65
2023/05/22 13:02:33;;;;;;;16.65;7.72;;;23.90;41.50;;;;;;6130543;28;80721;-63
2023/05/22 13:05:33;;;;;;;20.27;7.47;;;23.90;41.40;;;;;;6135634;28;80759;-65
2023/05/22 13:08:34;;;;;;;13.05;7.32;;;23.90;41.30;;;;;;6131285;28;81759;-66
2023/05/22 13:11:34;;;;;;;48.03;20.98;;;23.90;41.40;;;;;;6128820;28;80450;-63
2023/05/22 13:14:37;;;;;;;21.55;8.95;;;24.00;42.30;;;;;;6128485;28;83641;-66
2023/05/22 13:17:38;;;;;;;15.40;7.65;;;24.00;42.00;;;;;;6144352;28;83576;-63
2023/05/22 13:20:38;;;;;;;22.83;9.80;;;24.00;41.70;;;;;;6119837;28;80437;-64
2023/05/22 13:23:39;;;;;;;10.30;4.88;;;24.00;42.10;;;;;;6119634;28;80531;-63
2023/05/22 13:26:39;;;;;;;16.13;4.10;;;24.00;42.00;;;;;;6109849;28;81633;-65
2023/05/22 13:29:40;;;;;;;7.97;3.50;;;24.00;42.00;;;;;;6118187;28;83431;-65
2023/05/22 13:32:40;;;;;;;6.70;3.40;;;24.00;42.10;;;;;;6128283;28;83961;-64
2023/05/22 13:35:41;;;;;;;11.18;3.90;;;24.00;42.10;;;;;;6126763;28;80782;-66
2023/05/22 13:38:41;;;;;;;7.53;3.15;;;24.00;42.00;;;;;;6124556;28;80270;-60
2023/05/22 13:41:42;;;;;;;7.65;3.08;;;24.00;42.40;;;;;;6120053;28;87269;-60
2023/05/22 13:44:43;;;;;;;5.97;3.85;;;24.10;42.30;;;;;;6123067;28;81385;-69
2023/05/22 13:47:43;;;;;;;10.73;3.20;;;24.00;41.90;;;;;;6123629;28;80481;-64
2023/05/22 13:50:44;;;;;;;8.27;3.30;;;24.00;42.00;;;;;;6121660;28;80841;-65
2023/05/22 13:53:44;;;;;;;6.85;3.75;;;24.10;42.20;;;;;;6132956;28;81458;-66
2023/05/22 13:56:45;;;;;;;5.25;3.20;;;24.00;42.20;;;;;;6136828;28;80395;-63
2023/05/22 13:59:45;;;;;;;8.35;3.30;;;24.00;42.30;;;;;;6123750;28;80331;-67
2023/05/22 14:02:46;;;;;;;7.82;3.17;;;24.10;42.60;;;;;;6125657;28;81146;-68
2023/05/22 14:05:46;;;;;;;10.05;3.40;;;24.10;42.20;;;;;;6127471;28;81021;-68
2023/05/22 14:08:47;;;;;;;6.82;3.40;;;24.10;41.90;;;;;;6126201;28;83412;-68
2023/05/22 14:11:48;;;;;;;9.10;3.13;;;24.00;41.70;;;;;;6116193;28;80838;-67
2023/05/22 14:14:48;;;;;;;11.07;3.20;;;24.00;41.80;;;;;;6128614;28;80762;-67
2023/05/22 14:17:49;;;;;;;6.85;3.20;;;24.00;42.00;;;;;;6116909;28;80549;-68
2023/05/22 14:20:49;;;;;;;9.48;3.90;;;24.00;41.90;;;;;;6122078;28;81008;-63
2023/05/22 14:23:50;;;;;;;5.13;2.95;;;24.00;41.90;;;;;;6124766;28;84109;-58
2023/05/22 14:26:50;;;;;;;8.93;4.00;;;24.00;42.10;;;;;;6116452;28;80569;-64
2023/05/22 14:29:51;;;;;;;5.20;2.90;;;24.00;42.00;;;;;;6107731;28;87098;-62
2023/05/22 14:32:52;;;;;;;5.88;3.20;;;23.90;41.90;;;;;;6127302;28;83127;-53
2023/05/22 14:35:52;;;;;;;6.32;3.35;;;23.90;42.20;;;;;;6127012;28;82808;-52
2023/05/22 14:38:53;;;;;;;6.97;3.38;;;24.00;42.30;;;;;;6127489;28;80115;-54
2023/05/22 14:41:53;;;;;;;12.82;3.50;;;23.90;42.30;;;;;;6126535;28;80472;-55
2023/05/22 14:44:54;;;;;;;8.80;3.63;;;23.90;42.70;;;;;;6125908;28;83127;-56
2023/05/22 14:47:55;;;;;;;11.35;3.63;;;23.90;42.90;;;;;;6145790;28;81717;-58
2023/05/22 14:50:55;;;;;;;10.60;3.88;;;23.90;42.70;;;;;;6125783;28;81214;-58
2023/05/22 14:53:56;;;;;;;6.72;3.60;;;23.90;43.30;;;;;;6127545;28;81913;-58
2023/05/22 14:56:56;;;;;;;9.90;4.25;;;23.80;42.90;;;;;;6123746;28;81949;-58
2023/05/22 14:59:57;;;;;;;8.35;4.50;;;23.80;43.10;;;;;;6123372;28;84675;-61
2023/05/22 15:02:57;;;;;;;7.18;3.10;;;23.90;42.70;;;;;;6123486;28;81890;-59
2023/05/22 15:05:58;;;;;;;5.57;3.72;;;23.80;42.50;;;;;;6119173;28;81378;-59
2023/05/22 15:08:58;;;;;;;7.85;3.10;;;23.80;42.60;;;;;;6122560;28;82856;-58
2023/05/22 15:11:59;;;;;;;8.18;3.63;;;23.90;42.80;;;;;;6121788;28;80338;-58
2023/05/22 15:15:00;;;;;;;8.35;3.17;;;23.90;42.90;;;;;;6113584;28;81969;-58
2023/05/22 15:18:03;;;;;;;7.80;3.15;;;23.90;42.80;;;;;;6113654;28;80367;-55
2023/05/22 15:21:04;;;;;;;12.25;4.03;;;23.90;42.70;;;;;;6109195;28;80657;-56
2023/05/22 15:24:05;;;;;;;10.60;3.67;;;23.90;42.70;;;;;;6113575;28;80508;-57
2023/05/22 15:27:05;;;;;;;13.63;3.17;;;24.00;42.70;;;;;;6110297;28;84334;-59
2023/05/22 15:30:08;;;;;;;4.72;3.13;;;24.00;43.30;;;;;;6126231;28;80094;-56
2023/05/22 15:33:08;;;;;;;6.60;3.60;;;24.00;43.50;;;;;;6105990;28;80989;-58
2023/05/22 15:36:09;;;;;;;6.15;3.00;;;24.10;43.30;;;;;;6116724;28;80779;-57
2023/05/22 15:39:10;;;;;;;7.88;3.42;;;24.10;43.50;;;;;;6123252;28;81362;-55
2023/05/22 15:42:10;;;;;;;6.70;3.40;;;24.10;43.60;;;;;;6120534;28;80388;-59